createdAt,value
2018-08-19T00:03:14.976Z,75.20
2018-08-19T00:08:18.630Z,75.30
2018-08-19T00:13:22.288Z,75.30
2018-08-19T00:18:25.969Z,75.90
2018-08-19T00:23:35.263Z,75.50
2018-08-19T00:28:38.996Z,75.50
2018-08-19T00:33:42.577Z,75.60
2018-08-19T00:38:46.159Z,76.20
2018-08-19T00:43:49.837Z,75.90
2018-08-19T00:48:53.762Z,76.50
2018-08-19T00:53:57.677Z,76.90
2018-08-19T00:59:01.285Z,76.70
2018-08-19T01:04:07.378Z,77.30
2018-08-19T01:09:11.192Z,77.30
2018-08-19T01:14:15.408Z,77.30
2018-08-19T01:19:19.306Z,77.30
2018-08-19T01:24:23.044Z,77.40
2018-08-19T01:29:34.715Z,77.40
2018-08-19T01:34:38.670Z,78.20
2018-08-19T01:39:42.253Z,78.60
2018-08-19T01:44:45.907Z,78.00
2018-08-19T01:49:49.523Z,78.20
2018-08-19T01:54:53.106Z,78.00
2018-08-19T01:59:56.704Z,78.40
2018-08-19T02:05:00.301Z,78.30
2018-08-19T02:10:07.346Z,78.40
2018-08-19T02:15:11.290Z,78.10
2018-08-19T02:20:14.897Z,78.40
2018-08-19T02:25:18.574Z,78.10
2018-08-19T02:30:22.178Z,78.70
2018-08-19T02:35:25.897Z,78.90
2018-08-19T02:40:30.339Z,78.90
2018-08-19T02:45:33.934Z,79.30
2018-08-19T02:50:37.601Z,79.40
2018-08-19T02:55:41.158Z,79.00
2018-08-19T03:00:44.665Z,79.40
2018-08-19T03:06:05.977Z,79.20
2018-08-19T03:11:09.794Z,79.70
2018-08-19T03:16:13.480Z,79.30
2018-08-19T03:21:17.142Z,79.60
2018-08-19T03:26:20.831Z,79.70
2018-08-19T03:31:24.420Z,79.40
2018-08-19T03:36:28.034Z,80.10
2018-08-19T03:41:31.575Z,80.00
2018-08-19T03:46:35.148Z,79.60
2018-08-19T03:51:38.785Z,80.00
2018-08-19T03:56:42.351Z,80.20
2018-08-19T04:01:46.469Z,79.10
2018-08-19T04:06:49.977Z,79.90
2018-08-19T04:12:06.731Z,80.30
2018-08-19T04:17:12.249Z,81.40
2018-08-19T04:22:15.877Z,80.10
2018-08-19T04:27:19.441Z,80.40
2018-08-19T04:32:28.330Z,80.60
2018-08-19T04:37:31.951Z,80.30
2018-08-19T04:42:35.588Z,80.30
2018-08-19T04:47:39.182Z,80.30
2018-08-19T04:52:42.779Z,80.10
2018-08-19T04:57:46.571Z,79.70
2018-08-19T05:02:50.096Z,79.40
2018-08-19T05:07:53.821Z,79.70
2018-08-19T05:12:57.371Z,78.80
2018-08-19T05:18:01.059Z,78.20
2018-08-19T05:23:04.797Z,77.90
2018-08-19T05:28:08.416Z,77.30
2018-08-19T05:33:12.089Z,77.60
2018-08-19T05:38:15.754Z,76.80
2018-08-19T05:43:19.342Z,77.40
2018-08-19T05:48:23.302Z,78.70
2018-08-19T05:53:26.870Z,79.00
2018-08-19T05:58:30.599Z,79.00
2018-08-19T06:03:34.224Z,79.50
2018-08-19T06:08:37.942Z,80.20
2018-08-19T06:13:41.562Z,79.80
2018-08-19T06:18:45.146Z,79.90
2018-08-19T06:23:49.282Z,80.10
2018-08-19T06:28:53.079Z,80.30
2018-08-19T06:33:56.668Z,81.00
2018-08-19T06:39:00.374Z,80.60
2018-08-19T06:44:03.987Z,80.80
2018-08-19T06:49:12.674Z,80.60
2018-08-19T06:54:16.337Z,80.60
2018-08-19T06:59:19.923Z,80.60
2018-08-19T07:04:23.488Z,81.00
2018-08-19T07:09:27.313Z,80.70
2018-08-19T07:14:31.262Z,80.60
2018-08-19T07:19:37.045Z,79.40
2018-08-19T07:24:40.669Z,80.70
2018-08-19T07:29:44.320Z,80.10
2018-08-19T07:34:47.927Z,80.20
2018-08-19T07:39:53.880Z,80.00
2018-08-19T07:44:57.647Z,79.80
2018-08-19T07:50:01.314Z,79.60
2018-08-19T07:55:05.664Z,78.90
2018-08-19T08:00:10.228Z,78.50
2018-08-19T08:05:13.856Z,78.10
2018-08-19T08:10:17.999Z,78.20
2018-08-19T08:15:21.883Z,77.60
2018-08-19T08:20:25.745Z,76.40
2018-08-19T08:25:29.561Z,75.50
2018-08-19T08:30:33.348Z,75.20
2018-08-19T08:35:41.332Z,74.60
2018-08-19T08:40:45.190Z,74.60
2018-08-19T08:45:48.751Z,73.30
2018-08-19T08:50:52.380Z,71.80
2018-08-19T08:55:55.970Z,72.80
2018-08-19T09:01:00.015Z,73.20
2018-08-19T09:06:03.752Z,72.20
2018-08-19T09:11:07.485Z,71.30
2018-08-19T09:16:11.176Z,70.50
2018-08-19T09:21:15.304Z,70.30
2018-08-19T09:26:18.997Z,67.90
2018-08-19T09:31:22.579Z,69.20
2018-08-19T09:36:26.248Z,68.10
2018-08-19T09:41:29.838Z,68.80
2018-08-19T09:46:33.541Z,69.60
2018-08-19T09:51:37.102Z,69.60
2018-08-19T09:56:40.834Z,69.40
2018-08-19T10:01:47.415Z,69.30
2018-08-19T10:07:01.452Z,69.20
2018-08-19T10:17:42.882Z,67.80
2018-08-19T10:22:46.501Z,68.40
2018-08-19T13:09:08.311Z,53.20
2018-08-19T13:14:12.118Z,51.90
2018-08-19T13:19:17.337Z,51.50
2018-08-19T13:24:26.701Z,52.90
2018-08-19T13:29:38.411Z,52.10
2018-08-19T13:34:42.560Z,53.50
2018-08-19T13:39:47.631Z,55.10
2018-08-19T13:44:53.206Z,50.30
2018-08-19T13:49:57.240Z,53.60
2018-08-19T13:55:03.206Z,51.20
2018-08-19T14:00:16.134Z,51.00
2018-08-19T14:05:20.340Z,53.20
2018-08-19T14:10:28.073Z,53.30
2018-08-19T14:15:32.936Z,53.20
2018-08-19T14:20:40.056Z,53.90
2018-08-19T14:25:44.974Z,53.90
2018-08-19T14:30:49.054Z,53.80
2018-08-19T14:35:55.117Z,56.00
2018-08-19T14:40:59.615Z,53.40
2018-08-19T14:46:04.444Z,54.10
2018-08-19T14:51:09.510Z,55.20
2018-08-19T14:56:16.183Z,56.20
2018-08-19T15:01:20.611Z,56.70
2018-08-19T15:06:25.171Z,57.10
2018-08-19T15:11:42.777Z,54.70
2018-08-19T15:16:53.398Z,55.10
2018-08-19T15:55:18.224Z,58.50
2018-08-19T16:00:21.889Z,58.40
2018-08-19T16:05:25.714Z,59.50
2018-08-19T16:10:39.375Z,58.60
2018-08-19T16:15:44.316Z,59.20
2018-08-19T16:20:52.491Z,59.20
2018-08-19T16:25:56.216Z,58.80
2018-08-19T16:31:00.094Z,58.80
2018-08-19T16:36:26.125Z,59.00
2018-08-19T16:41:30.033Z,58.90
2018-08-19T16:46:34.067Z,60.40
2018-08-19T16:51:38.728Z,59.40
2018-08-19T22:21:21.280Z,75.70
2018-08-19T22:26:28.774Z,76.80
2018-08-19T22:31:36.209Z,77.90
2018-08-19T22:36:44.184Z,77.80
2018-08-19T22:41:53.147Z,78.20
2018-08-19T22:46:57.120Z,77.30
2018-08-19T22:52:33.950Z,79.40
2018-08-19T22:57:37.861Z,77.00
2018-08-19T23:02:48.847Z,79.10
2018-08-19T23:07:52.743Z,77.00
2018-08-19T23:12:57.306Z,78.70
2018-08-19T23:18:01.543Z,77.50
2018-08-19T23:23:06.414Z,79.40
2018-08-19T23:28:11.061Z,79.30
2018-08-19T23:33:17.348Z,80.30
2018-08-19T23:38:21.099Z,81.40
2018-08-19T23:49:46.326Z,80.50
2018-08-19T23:54:51.928Z,82.50
2018-08-19T23:59:55.603Z,83.60
